sensor_id;sensor_type;location;lat;lon;timestamp;pressure;altitude;pressure_sealevel;temperature;humidity
17362;BME280;8798;51.938;4.348;2023-06-19T00:02:25;99902.84;;;23.26;49.76
17362;BME280;8798;51.938;4.348;2023-06-19T00:04:53;99877.25;;;23.15;49.94
17362;BME280;8798;51.938;4.348;2023-06-19T00:07:22;99890.16;;;23.15;49.97
17362;BME280;8798;51.938;4.348;2023-06-19T00:09:50;99882.13;;;23.08;50.27
17362;BME280;8798;51.938;4.348;2023-06-19T00:12:17;99882.91;;;23.04;50.84
17362;BME280;8798;51.938;4.348;2023-06-19T00:14:46;99874.84;;;22.97;51.36
17362;BME280;8798;51.938;4.348;2023-06-19T00:17:14;99899.50;;;22.97;51.36
17362;BME280;8798;51.938;4.348;2023-06-19T00:19:43;99926.44;;;23.00;51.58
17362;BME280;8798;51.938;4.348;2023-06-19T00:22:11;99934.91;;;22.99;52.09
17362;BME280;8798;51.938;4.348;2023-06-19T00:24:40;99937.56;;;22.93;52.43
17362;BME280;8798;51.938;4.348;2023-06-19T00:27:08;99934.50;;;22.90;52.25
17362;BME280;8798;51.938;4.348;2023-06-19T00:29:36;99944.88;;;22.88;52.28
17362;BME280;8798;51.938;4.348;2023-06-19T00:32:04;99968.19;;;22.90;52.74
17362;BME280;8798;51.938;4.348;2023-06-19T00:34:32;99969.78;;;22.86;53.06
17362;BME280;8798;51.938;4.348;2023-06-19T00:37:00;99971.13;;;22.84;53.38
17362;BME280;8798;51.938;4.348;2023-06-19T00:39:28;100013.38;;;22.88;53.25
17362;BME280;8798;51.938;4.348;2023-06-19T00:41:57;100021.59;;;22.88;53.30
17362;BME280;8798;51.938;4.348;2023-06-19T00:44:25;100025.66;;;22.85;54.01
17362;BME280;8798;51.938;4.348;2023-06-19T00:46:57;100035.22;;;22.83;53.81
17362;BME280;8798;51.938;4.348;2023-06-19T00:49:28;100015.41;;;22.75;54.18
17362;BME280;8798;51.938;4.348;2023-06-19T00:51:56;99986.78;;;22.66;54.11
17362;BME280;8798;51.938;4.348;2023-06-19T00:54:24;99977.91;;;22.59;54.58
17362;BME280;8798;51.938;4.348;2023-06-19T00:56:52;99971.56;;;22.53;55.21
17362;BME280;8798;51.938;4.348;2023-06-19T00:59:22;100000.34;;;22.56;55.12
17362;BME280;8798;51.938;4.348;2023-06-19T01:01:50;99995.63;;;22.51;55.43
17362;BME280;8798;51.938;4.348;2023-06-19T01:04:18;99973.34;;;22.43;55.19
17362;BME280;8798;51.938;4.348;2023-06-19T01:06:52;99973.22;;;22.38;55.92
17362;BME280;8798;51.938;4.348;2023-06-19T01:09:28;99961.66;;;22.30;55.70
17362;BME280;8798;51.938;4.348;2023-06-19T01:12:01;99954.19;;;22.26;56.38
17362;BME280;8798;51.938;4.348;2023-06-19T01:14:37;99953.84;;;22.22;56.55
17362;BME280;8798;51.938;4.348;2023-06-19T01:17:06;99937.03;;;22.14;56.85
17362;BME280;8798;51.938;4.348;2023-06-19T01:19:34;99936.69;;;22.10;57.29
17362;BME280;8798;51.938;4.348;2023-06-19T01:22:04;99947.03;;;22.08;57.62
17362;BME280;8798;51.938;4.348;2023-06-19T01:24:32;99953.00;;;22.05;57.47
17362;BME280;8798;51.938;4.348;2023-06-19T01:27:00;99944.16;;;21.98;57.97
17362;BME280;8798;51.938;4.348;2023-06-19T01:29:29;99943.56;;;21.96;58.06
17362;BME280;8798;51.938;4.348;2023-06-19T01:32:00;99964.38;;;21.97;58.65
17362;BME280;8798;51.938;4.348;2023-06-19T01:34:30;99990.66;;;21.98;58.70
17362;BME280;8798;51.938;4.348;2023-06-19T01:36:59;100029.59;;;22.05;58.72
17362;BME280;8798;51.938;4.348;2023-06-19T01:39:29;100053.19;;;22.06;59.21
17362;BME280;8798;51.938;4.348;2023-06-19T01:41:57;100069.09;;;22.09;59.41
17362;BME280;8798;51.938;4.348;2023-06-19T01:44:26;100089.06;;;22.09;59.52
17362;BME280;8798;51.938;4.348;2023-06-19T01:46:54;100117.59;;;22.14;59.65
17362;BME280;8798;51.938;4.348;2023-06-19T01:49:22;100138.16;;;22.16;60.08
17362;BME280;8798;51.938;4.348;2023-06-19T01:51:50;100158.72;;;22.19;59.89
17362;BME280;8798;51.938;4.348;2023-06-19T01:54:18;100194.66;;;22.22;59.99
17362;BME280;8798;51.938;4.348;2023-06-19T01:56:47;100224.03;;;22.27;60.08
17362;BME280;8798;51.938;4.348;2023-06-19T01:59:14;100263.03;;;22.34;60.17
17362;BME280;8798;51.938;4.348;2023-06-19T02:01:42;100285.84;;;22.40;60.42
17362;BME280;8798;51.938;4.348;2023-06-19T02:04:10;100274.22;;;22.32;61.14
17362;BME280;8798;51.938;4.348;2023-06-19T02:06:38;100264.59;;;22.30;61.08
17362;BME280;8798;51.938;4.348;2023-06-19T02:09:06;100269.50;;;22.28;61.03
17362;BME280;8798;51.938;4.348;2023-06-19T02:11:34;100268.06;;;22.25;61.56
17362;BME280;8798;51.938;4.348;2023-06-19T02:14:03;100260.34;;;22.22;61.32
17362;BME280;8798;51.938;4.348;2023-06-19T02:16:31;100225.63;;;22.11;61.31
17362;BME280;8798;51.938;4.348;2023-06-19T02:18:59;100219.78;;;22.07;61.92
17362;BME280;8798;51.938;4.348;2023-06-19T02:21:27;100227.19;;;22.07;61.74
17362;BME280;8798;51.938;4.348;2023-06-19T02:23:55;100225.16;;;22.02;62.18
17362;BME280;8798;51.938;4.348;2023-06-19T02:26:24;100213.91;;;21.99;62.44
17362;BME280;8798;51.938;4.348;2023-06-19T02:28:55;100215.44;;;21.95;62.77
17362;BME280;8798;51.938;4.348;2023-06-19T02:31:25;100224.47;;;21.95;62.45
17362;BME280;8798;51.938;4.348;2023-06-19T02:33:52;100233.75;;;21.94;62.90
17362;BME280;8798;51.938;4.348;2023-06-19T02:36:20;100251.59;;;21.97;63.01
17362;BME280;8798;51.938;4.348;2023-06-19T02:38:48;100245.75;;;21.93;63.48
17362;BME280;8798;51.938;4.348;2023-06-19T02:41:16;100242.69;;;21.89;63.83
17362;BME280;8798;51.938;4.348;2023-06-19T02:43:45;100228.31;;;21.82;63.55
17362;BME280;8798;51.938;4.348;2023-06-19T02:46:13;100198.63;;;21.74;64.08
17362;BME280;8798;51.938;4.348;2023-06-19T02:48:42;100161.19;;;21.63;64.22
17362;BME280;8798;51.938;4.348;2023-06-19T02:51:10;100122.13;;;21.51;64.18
17362;BME280;8798;51.938;4.348;2023-06-19T02:53:38;100086.84;;;21.37;64.31
17362;BME280;8798;51.938;4.348;2023-06-19T02:56:07;100093.38;;;21.36;64.51
17362;BME280;8798;51.938;4.348;2023-06-19T02:58:35;100105.38;;;21.35;64.98
17362;BME280;8798;51.938;4.348;2023-06-19T03:01:04;100082.00;;;21.27;65.11
17362;BME280;8798;51.938;4.348;2023-06-19T03:03:33;100091.50;;;21.25;65.15
17362;BME280;8798;51.938;4.348;2023-06-19T03:06:06;100106.81;;;21.26;65.63
17362;BME280;8798;51.938;4.348;2023-06-19T03:08:34;100127.63;;;21.27;65.67
17362;BME280;8798;51.938;4.348;2023-06-19T03:11:02;100123.47;;;21.24;65.85
17362;BME280;8798;51.938;4.348;2023-06-19T03:13:47;100134.63;;;21.23;66.13
17362;BME280;8798;51.938;4.348;2023-06-19T03:16:15;100123.59;;;21.18;66.46
17362;BME280;8798;51.938;4.348;2023-06-19T03:18:43;100154.25;;;21.20;66.42
17362;BME280;8798;51.938;4.348;2023-06-19T03:21:14;100172.88;;;21.23;66.31
17362;BME280;8798;51.938;4.348;2023-06-19T03:23:42;100179.66;;;21.20;66.51
17362;BME280;8798;51.938;4.348;2023-06-19T03:26:10;100159.00;;;21.13;66.42
17362;BME280;8798;51.938;4.348;2023-06-19T03:28:38;100159.22;;;21.11;66.67
17362;BME280;8798;51.938;4.348;2023-06-19T03:31:06;100160.53;;;21.09;67.01
17362;BME280;8798;51.938;4.348;2023-06-19T03:33:34;100137.97;;;21.01;66.93
17362;BME280;8798;51.938;4.348;2023-06-19T03:36:02;100150.19;;;20.99;67.13
17362;BME280;8798;51.938;4.348;2023-06-19T03:38:32;100176.81;;;21.03;67.11
17362;BME280;8798;51.938;4.348;2023-06-19T03:40:59;100171.00;;;21.00;67.34
17362;BME280;8798;51.938;4.348;2023-06-19T03:43:27;100173.13;;;20.98;66.74
17362;BME280;8798;51.938;4.348;2023-06-19T03:45:55;100192.03;;;20.99;67.57
17362;BME280;8798;51.938;4.348;2023-06-19T03:48:23;100179.06;;;20.95;67.68
17362;BME280;8798;51.938;4.348;2023-06-19T03:50:51;100199.00;;;20.95;67.44
17362;BME280;8798;51.938;4.348;2023-06-19T03:53:19;100186.91;;;20.91;67.62
17362;BME280;8798;51.938;4.348;2023-06-19T03:55:48;100173.94;;;20.87;67.68
17362;BME280;8798;51.938;4.348;2023-06-19T03:58:17;100203.75;;;20.88;67.63
17362;BME280;8798;51.938;4.348;2023-06-19T04:00:45;100194.38;;;20.84;67.73
17362;BME280;8798;51.938;4.348;2023-06-19T04:03:13;100166.81;;;20.74;67.85
17362;BME280;8798;51.938;4.348;2023-06-19T04:05:41;100165.38;;;20.71;67.79
17362;BME280;8798;51.938;4.348;2023-06-19T04:08:10;100186.75;;;20.74;67.91
17362;BME280;8798;51.938;4.348;2023-06-19T04:10:37;100188.91;;;20.72;68.01
17362;BME280;8798;51.938;4.348;2023-06-19T04:13:07;100209.66;;;20.73;67.95
17362;BME280;8798;51.938;4.348;2023-06-19T04:15:35;100198.41;;;20.70;67.86
17362;BME280;8798;51.938;4.348;2023-06-19T04:18:04;100171.44;;;20.61;68.14
17362;BME280;8798;51.938;4.348;2023-06-19T04:20:32;100188.63;;;20.62;68.07
17362;BME280;8798;51.938;4.348;2023-06-19T04:23:00;100220.09;;;20.65;68.23
17362;BME280;8798;51.938;4.348;2023-06-19T04:25:28;100241.69;;;20.66;68.40
17362;BME280;8798;51.938;4.348;2023-06-19T04:27:56;100263.91;;;20.70;68.60
17362;BME280;8798;51.938;4.348;2023-06-19T04:30:25;100270.66;;;20.67;68.29
17362;BME280;8798;51.938;4.348;2023-06-19T04:32:53;100271.72;;;20.66;68.41
17362;BME280;8798;51.938;4.348;2023-06-19T04:35:21;100293.94;;;20.70;68.45
17362;BME280;8798;51.938;4.348;2023-06-19T04:37:50;100325.16;;;20.74;68.34
17362;BME280;8798;51.938;4.348;2023-06-19T04:40:18;100344.88;;;20.76;68.57
17362;BME280;8798;51.938;4.348;2023-06-19T04:42:46;100354.72;;;20.77;68.36
17362;BME280;8798;51.938;4.348;2023-06-19T04:45:13;100377.16;;;20.79;68.57
17362;BME280;8798;51.938;4.348;2023-06-19T04:47:43;100393.34;;;20.80;68.41
17362;BME280;8798;51.938;4.348;2023-06-19T04:50:19;100390.22;;;20.77;68.54
17362;BME280;8798;51.938;4.348;2023-06-19T04:52:48;100378.09;;;20.73;68.49
17362;BME280;8798;51.938;4.348;2023-06-19T04:55:18;100354.44;;;20.67;68.59
17362;BME280;8798;51.938;4.348;2023-06-19T04:57:46;100354.91;;;20.64;68.64
17362;BME280;8798;51.938;4.348;2023-06-19T05:00:15;100336.75;;;20.57;68.58
17362;BME280;8798;51.938;4.348;2023-06-19T05:02:47;100342.22;;;20.57;68.58
17362;BME280;8798;51.938;4.348;2023-06-19T05:05:15;100364.03;;;20.57;68.66
17362;BME280;8798;51.938;4.348;2023-06-19T05:07:45;100377.44;;;20.59;68.65
17362;BME280;8798;51.938;4.348;2023-06-19T05:10:13;100387.31;;;20.60;68.65
17362;BME280;8798;51.938;4.348;2023-06-19T05:12:43;100409.72;;;20.62;68.83
17362;BME280;8798;51.938;4.348;2023-06-19T05:15:11;100415.44;;;20.60;68.63
17362;BME280;8798;51.938;4.348;2023-06-19T05:17:39;100417.34;;;20.60;68.86
17362;BME280;8798;51.938;4.348;2023-06-19T05:20:10;100423.84;;;20.59;68.73
17362;BME280;8798;51.938;4.348;2023-06-19T05:22:39;100407.50;;;20.52;68.75
17362;BME280;8798;51.938;4.348;2023-06-19T05:25:07;100404.19;;;20.50;68.61
17362;BME280;8798;51.938;4.348;2023-06-19T05:27:35;100413.41;;;20.49;67.98
17362;BME280;8798;51.938;4.348;2023-06-19T05:30:04;100412.81;;;20.47;68.76
17362;BME280;8798;51.938;4.348;2023-06-19T05:32:35;100390.25;;;20.40;68.61
17362;BME280;8798;51.938;4.348;2023-06-19T05:35:04;100413.53;;;20.43;68.72
17362;BME280;8798;51.938;4.348;2023-06-19T05:37:33;100431.34;;;20.45;68.75
17362;BME280;8798;51.938;4.348;2023-06-19T05:40:01;100460.06;;;20.48;68.63
17362;BME280;8798;51.938;4.348;2023-06-19T05:42:30;100471.56;;;20.50;68.52
17362;BME280;8798;51.938;4.348;2023-06-19T05:44:58;100482.25;;;20.51;68.70
17362;BME280;8798;51.938;4.348;2023-06-19T05:47:26;100497.56;;;20.52;68.70
17362;BME280;8798;51.938;4.348;2023-06-19T05:49:55;100487.09;;;20.49;68.67
17362;BME280;8798;51.938;4.348;2023-06-19T05:52:23;100463.69;;;20.41;68.80
17362;BME280;8798;51.938;4.348;2023-06-19T05:54:52;100470.22;;;20.40;68.73
17362;BME280;8798;51.938;4.348;2023-06-19T05:57:20;100498.69;;;20.45;68.52
17362;BME280;8798;51.938;4.348;2023-06-19T05:59:48;100511.31;;;20.46;68.56
17362;BME280;8798;51.938;4.348;2023-06-19T06:02:17;100509.84;;;20.43;68.77
17362;BME280;8798;51.938;4.348;2023-06-19T06:04:45;100513.41;;;20.44;68.38
17362;BME280;8798;51.938;4.348;2023-06-19T06:07:13;100513.03;;;20.40;68.41
17362;BME280;8798;51.938;4.348;2023-06-19T06:09:41;100519.53;;;20.39;68.31
17362;BME280;8798;51.938;4.348;2023-06-19T06:12:11;100508.25;;;20.35;68.22
17362;BME280;8798;51.938;4.348;2023-06-19T06:14:40;100502.19;;;20.33;68.20
17362;BME280;8798;51.938;4.348;2023-06-19T06:17:08;100502.41;;;20.32;68.35
17362;BME280;8798;51.938;4.348;2023-06-19T06:19:36;100515.22;;;20.31;68.19
17362;BME280;8798;51.938;4.348;2023-06-19T06:22:05;100523.41;;;20.31;68.41
17362;BME280;8798;51.938;4.348;2023-06-19T06:24:34;100555.22;;;20.37;68.20
17362;BME280;8798;51.938;4.348;2023-06-19T06:27:04;100591.72;;;20.43;68.11
17362;BME280;8798;51.938;4.348;2023-06-19T06:32:04;100651.03;;;20.54;68.08
17362;BME280;8798;51.938;4.348;2023-06-19T06:34:32;100687.34;;;20.61;68.08
17362;BME280;8798;51.938;4.348;2023-06-19T06:37:00;100713.16;;;20.66;67.95
17362;BME280;8798;51.938;4.348;2023-06-19T06:39:32;100772.47;;;20.77;68.00
17362;BME280;8798;51.938;4.348;2023-06-19T06:42:00;100808.56;;;20.86;67.90
17362;BME280;8798;51.938;4.348;2023-06-19T06:44:28;100828.31;;;20.88;67.69
17362;BME280;8798;51.938;4.348;2023-06-19T06:46:57;100867.34;;;20.95;67.53
17362;BME280;8798;51.938;4.348;2023-06-19T06:49:25;100872.34;;;20.98;67.86
17362;BME280;8798;51.938;4.348;2023-06-19T06:51:53;100868.16;;;20.95;67.67
17362;BME280;8798;51.938;4.348;2023-06-19T06:54:23;100875.28;;;20.96;67.66
17362;BME280;8798;51.938;4.348;2023-06-19T06:56:51;100907.22;;;21.02;67.58
17362;BME280;8798;51.938;4.348;2023-06-19T06:59:23;100932.81;;;21.08;67.38
17362;BME280;8798;51.938;4.348;2023-06-19T07:01:51;100976.03;;;21.18;67.45
17362;BME280;8798;51.938;4.348;2023-06-19T07:04:20;101011.53;;;21.24;67.61
17362;BME280;8798;51.938;4.348;2023-06-19T07:06:49;101057.28;;;21.36;67.55
17362;BME280;8798;51.938;4.348;2023-06-19T07:09:17;101089.03;;;21.43;67.01
17362;BME280;8798;51.938;4.348;2023-06-19T07:11:45;101109.44;;;21.47;67.55
17362;BME280;8798;51.938;4.348;2023-06-19T07:14:13;101089.66;;;21.45;67.25
17362;BME280;8798;51.938;4.348;2023-06-19T07:16:44;101114.25;;;21.52;67.33
17362;BME280;8798;51.938;4.348;2023-06-19T07:19:13;101151.44;;;21.60;66.90
17362;BME280;8798;51.938;4.348;2023-06-19T07:21:43;101155.63;;;21.62;66.92
17362;BME280;8798;51.938;4.348;2023-06-19T07:24:12;101135.25;;;21.58;66.84
17362;BME280;8798;51.938;4.348;2023-06-19T07:26:40;101137.97;;;21.58;66.90
17362;BME280;8798;51.938;4.348;2023-06-19T07:29:07;101156.69;;;21.61;66.47
17362;BME280;8798;51.938;4.348;2023-06-19T07:31:35;101214.91;;;21.75;66.59
17362;BME280;8798;51.938;4.348;2023-06-19T07:34:03;101257.16;;;21.86;66.68
17362;BME280;8798;51.938;4.348;2023-06-19T07:36:31;101309.28;;;21.98;66.18
17362;BME280;8798;51.938;4.348;2023-06-19T07:39:00;101353.47;;;22.08;66.54
17362;BME280;8798;51.938;4.348;2023-06-19T07:41:28;101372.59;;;22.15;66.21
17362;BME280;8798;51.938;4.348;2023-06-19T07:43:56;101375.78;;;22.18;66.06
17362;BME280;8798;51.938;4.348;2023-06-19T07:46:24;101366.09;;;22.16;66.18
17362;BME280;8798;51.938;4.348;2023-06-19T07:48:52;101339.56;;;22.09;66.19
17362;BME280;8798;51.938;4.348;2023-06-19T07:51:20;101338.94;;;22.14;65.96
17362;BME280;8798;51.938;4.348;2023-06-19T07:53:48;101323.34;;;22.08;65.56
17362;BME280;8798;51.938;4.348;2023-06-19T07:56:17;101337.84;;;22.15;65.92
17362;BME280;8798;51.938;4.348;2023-06-19T07:58:45;101359.78;;;22.22;65.25
17362;BME280;8798;51.938;4.348;2023-06-19T08:01:13;101333.25;;;22.16;65.30
17362;BME280;8798;51.938;4.348;2023-06-19T08:03:42;101361.69;;;22.21;65.34
17362;BME280;8798;51.938;4.348;2023-06-19T08:06:10;101411.72;;;22.35;65.48
17362;BME280;8798;51.938;4.348;2023-06-19T08:08:38;101462.03;;;22.47;64.93
17362;BME280;8798;51.938;4.348;2023-06-19T08:11:06;101491.72;;;22.57;65.28
17362;BME280;8798;51.938;4.348;2023-06-19T08:13:35;101531.50;;;22.66;64.88
17362;BME280;8798;51.938;4.348;2023-06-19T08:16:03;101558.66;;;22.74;64.46
17362;BME280;8798;51.938;4.348;2023-06-19T08:18:31;101547.69;;;22.74;64.45
17362;BME280;8798;51.938;4.348;2023-06-19T08:20:59;101497.81;;;22.66;64.22
17362;BME280;8798;51.938;4.348;2023-06-19T08:23:27;101506.41;;;22.69;64.26
17362;BME280;8798;51.938;4.348;2023-06-19T08:25:55;101555.06;;;22.81;64.65
17362;BME280;8798;51.938;4.348;2023-06-19T08:28:23;101584.13;;;22.88;64.29
17362;BME280;8798;51.938;4.348;2023-06-19T08:30:52;101522.63;;;22.78;64.49
17362;BME280;8798;51.938;4.348;2023-06-19T08:33:20;101500.53;;;22.72;64.31
17362;BME280;8798;51.938;4.348;2023-06-19T08:35:48;101480.47;;;22.72;63.86
17362;BME280;8798;51.938;4.348;2023-06-19T08:38:16;101485.75;;;22.73;64.17
17362;BME280;8798;51.938;4.348;2023-06-19T08:40:44;101522.81;;;22.83;63.46
17362;BME280;8798;51.938;4.348;2023-06-19T08:43:12;101570.44;;;22.95;63.44
17362;BME280;8798;51.938;4.348;2023-06-19T08:45:40;101648.19;;;23.14;63.42
17362;BME280;8798;51.938;4.348;2023-06-19T08:48:13;101706.13;;;23.31;63.25
17362;BME280;8798;51.938;4.348;2023-06-19T08:50:41;101736.06;;;23.39;63.64
17362;BME280;8798;51.938;4.348;2023-06-19T08:53:09;101725.97;;;23.39;63.24
17362;BME280;8798;51.938;4.348;2023-06-19T08:55:36;101713.28;;;23.38;63.06
17362;BME280;8798;51.938;4.348;2023-06-19T08:58:04;101741.97;;;23.49;62.91
17362;BME280;8798;51.938;4.348;2023-06-19T09:00:32;101766.63;;;23.56;62.46
17362;BME280;8798;51.938;4.348;2023-06-19T09:03:02;101758.19;;;23.57;62.79
17362;BME280;8798;51.938;4.348;2023-06-19T09:05:42;101788.13;;;23.66;62.45
17362;BME280;8798;51.938;4.348;2023-06-19T09:08:17;101730.97;;;23.56;62.12
17362;BME280;8798;51.938;4.348;2023-06-19T09:10:55;101746.56;;;23.62;62.58
17362;BME280;8798;51.938;4.348;2023-06-19T09:13:23;101746.97;;;23.66;62.27
17362;BME280;8798;51.938;4.348;2023-06-19T09:15:58;101714.09;;;23.59;61.77
17362;BME280;8798;51.938;4.348;2023-06-19T09:18:29;101734.94;;;23.67;62.05
17362;BME280;8798;51.938;4.348;2023-06-19T09:20:59;101784.31;;;23.80;61.82
17362;BME280;8798;51.938;4.348;2023-06-19T09:23:27;101832.81;;;23.93;61.81
17362;BME280;8798;51.938;4.348;2023-06-19T09:25:57;101868.06;;;24.02;61.38
17362;BME280;8798;51.938;4.348;2023-06-19T09:28:26;101860.25;;;24.06;61.42
17362;BME280;8798;51.938;4.348;2023-06-19T09:30:57;101839.56;;;24.03;61.23
17362;BME280;8798;51.938;4.348;2023-06-19T09:33:26;101877.31;;;24.15;60.94
17362;BME280;8798;51.938;4.348;2023-06-19T09:35:55;101934.53;;;24.31;61.17
17362;BME280;8798;51.938;4.348;2023-06-19T09:38:28;101886.19;;;24.23;61.08
17362;BME280;8798;51.938;4.348;2023-06-19T09:41:02;101881.53;;;24.24;60.72
17362;BME280;8798;51.938;4.348;2023-06-19T09:43:33;101919.91;;;24.37;60.81
17362;BME280;8798;51.938;4.348;2023-06-19T09:46:02;101960.50;;;24.49;60.58
17362;BME280;8798;51.938;4.348;2023-06-19T09:48:31;101950.34;;;24.49;60.51
17362;BME280;8798;51.938;4.348;2023-06-19T09:51:05;101882.53;;;24.36;60.51
17362;BME280;8798;51.938;4.348;2023-06-19T09:53:38;101890.13;;;24.41;59.95
17362;BME280;8798;51.938;4.348;2023-06-19T09:56:07;101942.91;;;24.56;59.97
17362;BME280;8798;51.938;4.348;2023-06-19T09:58:36;101985.16;;;24.68;59.82
17362;BME280;8798;51.938;4.348;2023-06-19T10:01:04;101990.00;;;24.73;60.03
17362;BME280;8798;51.938;4.348;2023-06-19T10:03:35;101972.63;;;24.73;59.65
17362;BME280;8798;51.938;4.348;2023-06-19T10:06:03;101982.78;;;24.79;59.47
17362;BME280;8798;51.938;4.348;2023-06-19T10:08:40;101934.59;;;24.70;59.59
17362;BME280;8798;51.938;4.348;2023-06-19T10:11:08;101906.72;;;24.66;59.57
17362;BME280;8798;51.938;4.348;2023-06-19T10:13:37;101892.13;;;24.65;59.22
17362;BME280;8798;51.938;4.348;2023-06-19T10:16:06;101889.16;;;24.67;59.36
17362;BME280;8798;51.938;4.348;2023-06-19T10:18:45;101872.91;;;24.65;59.27
17362;BME280;8798;51.938;4.348;2023-06-19T10:21:16;101881.53;;;24.69;59.04
17362;BME280;8798;51.938;4.348;2023-06-19T10:23:53;101874.75;;;24.72;59.01
17362;BME280;8798;51.938;4.348;2023-06-19T10:26:32;101885.09;;;24.76;58.82
17362;BME280;8798;51.938;4.348;2023-06-19T10:29:00;101812.03;;;24.62;58.57
17362;BME280;8798;51.938;4.348;2023-06-19T10:31:28;101758.38;;;24.53;58.65
17362;BME280;8798;51.938;4.348;2023-06-19T10:33:56;101729.06;;;24.46;58.55
17362;BME280;8798;51.938;4.348;2023-06-19T10:36:24;101709.84;;;24.46;58.49
17362;BME280;8798;51.938;4.348;2023-06-19T10:38:54;101759.44;;;24.58;58.36
17362;BME280;8798;51.938;4.348;2023-06-19T10:41:24;101827.38;;;24.76;58.38
17362;BME280;8798;51.938;4.348;2023-06-19T10:43:53;101869.56;;;24.88;58.25
17362;BME280;8798;51.938;4.348;2023-06-19T10:46:22;101928.06;;;25.02;58.27
17362;BME280;8798;51.938;4.348;2023-06-19T10:48:50;101871.41;;;24.95;58.25
17362;BME280;8798;51.938;4.348;2023-06-19T10:51:23;101934.16;;;25.11;57.87
17362;BME280;8798;51.938;4.348;2023-06-19T10:53:55;102010.25;;;25.30;57.89
17362;BME280;8798;51.938;4.348;2023-06-19T10:56:24;102031.97;;;25.39;57.63
17362;BME280;8798;51.938;4.348;2023-06-19T10:58:59;102018.84;;;25.41;57.67
17362;BME280;8798;51.938;4.348;2023-06-19T11:01:32;102002.53;;;25.39;57.42
17362;BME280;8798;51.938;4.348;2023-06-19T11:04:02;101953.91;;;25.33;57.26
17362;BME280;8798;51.938;4.348;2023-06-19T11:06:31;101959.81;;;25.37;56.93
17362;BME280;8798;51.938;4.348;2023-06-19T11:09:02;102006.50;;;25.50;57.04
17362;BME280;8798;51.938;4.348;2023-06-19T11:11:38;102044.09;;;25.63;56.98
17362;BME280;8798;51.938;4.348;2023-06-19T11:14:07;102111.13;;;25.82;56.72
17362;BME280;8798;51.938;4.348;2023-06-19T11:16:38;102139.03;;;25.92;56.61
17362;BME280;8798;51.938;4.348;2023-06-19T11:19:08;102139.66;;;25.94;56.55
17362;BME280;8798;51.938;4.348;2023-06-19T11:21:37;102108.75;;;25.92;56.26
17362;BME280;8798;51.938;4.348;2023-06-19T11:24:11;102121.59;;;25.98;56.41
17362;BME280;8798;51.938;4.348;2023-06-19T11:26:41;102147.59;;;26.09;56.08
17362;BME280;8798;51.938;4.348;2023-06-19T11:29:14;102187.75;;;26.23;56.03
17362;BME280;8798;51.938;4.348;2023-06-19T11:31:42;102193.41;;;26.28;55.57
17362;BME280;8798;51.938;4.348;2023-06-19T11:34:11;102185.78;;;26.30;55.64
17362;BME280;8798;51.938;4.348;2023-06-19T11:36:39;102179.81;;;26.33;55.70
17362;BME280;8798;51.938;4.348;2023-06-19T11:39:10;102161.59;;;26.32;55.05
17362;BME280;8798;51.938;4.348;2023-06-19T11:41:40;102111.22;;;26.25;55.23
17362;BME280;8798;51.938;4.348;2023-06-19T11:44:09;102057.84;;;26.20;54.95
17362;BME280;8798;51.938;4.348;2023-06-19T11:46:37;102058.69;;;26.20;54.59
17362;BME280;8798;51.938;4.348;2023-06-19T11:49:09;102044.69;;;26.22;54.35
17362;BME280;8798;51.938;4.348;2023-06-19T11:51:38;101954.38;;;26.05;54.41
17362;BME280;8798;51.938;4.348;2023-06-19T11:54:08;101916.09;;;25.97;54.43
17362;BME280;8798;51.938;4.348;2023-06-19T11:56:38;101924.53;;;26.02;54.13
17362;BME280;8798;51.938;4.348;2023-06-19T11:59:06;101959.56;;;26.13;54.15
17362;BME280;8798;51.938;4.348;2023-06-19T12:01:36;101998.00;;;26.27;53.95
17362;BME280;8798;51.938;4.348;2023-06-19T12:04:04;102084.69;;;26.49;54.25
17362;BME280;8798;51.938;4.348;2023-06-19T12:06:33;102166.16;;;26.70;54.12
17362;BME280;8798;51.938;4.348;2023-06-19T12:09:02;102120.22;;;26.64;53.41
17362;BME280;8798;51.938;4.348;2023-06-19T12:11:32;102112.31;;;26.68;53.40
17362;BME280;8798;51.938;4.348;2023-06-19T12:14:01;102130.47;;;26.75;53.21
17362;BME280;8798;51.938;4.348;2023-06-19T12:16:29;102083.69;;;26.69;53.51
17362;BME280;8798;51.938;4.348;2023-06-19T12:18:57;102081.53;;;26.71;53.08
17362;BME280;8798;51.938;4.348;2023-06-19T12:21:24;102154.50;;;26.93;52.56
17362;BME280;8798;51.938;4.348;2023-06-19T12:24:04;102107.88;;;26.85;52.30
17362;BME280;8798;51.938;4.348;2023-06-19T12:26:34;102062.75;;;26.79;52.40
17362;BME280;8798;51.938;4.348;2023-06-19T12:29:06;102122.84;;;26.96;52.33
17362;BME280;8798;51.938;4.348;2023-06-19T12:31:34;102201.53;;;27.17;52.09
17362;BME280;8798;51.938;4.348;2023-06-19T12:34:03;102199.22;;;27.20;51.77
17362;BME280;8798;51.938;4.348;2023-06-19T12:36:50;102212.69;;;27.29;52.21
17362;BME280;8798;51.938;4.348;2023-06-19T12:39:18;102239.78;;;27.38;51.73
17362;BME280;8798;51.938;4.348;2023-06-19T12:41:46;102205.19;;;27.36;51.32
17362;BME280;8798;51.938;4.348;2023-06-19T12:44:15;102180.56;;;27.34;51.74
17362;BME280;8798;51.938;4.348;2023-06-19T12:46:43;102243.22;;;27.52;51.05
17362;BME280;8798;51.938;4.348;2023-06-19T12:49:11;102287.03;;;27.67;51.13
17362;BME280;8798;51.938;4.348;2023-06-19T12:51:39;102373.44;;;27.93;50.85
17362;BME280;8798;51.938;4.348;2023-06-19T12:54:07;102450.38;;;28.14;50.65
17362;BME280;8798;51.938;4.348;2023-06-19T12:56:35;102520.72;;;28.37;50.32
17362;BME280;8798;51.938;4.348;2023-06-19T12:59:03;102466.56;;;28.29;50.31
17362;BME280;8798;51.938;4.348;2023-06-19T13:01:32;102422.16;;;28.24;50.48
17362;BME280;8798;51.938;4.348;2023-06-19T13:04:00;102310.78;;;28.05;50.47
17362;BME280;8798;51.938;4.348;2023-06-19T13:06:28;102203.53;;;27.83;50.40
17362;BME280;8798;51.938;4.348;2023-06-19T13:08:56;102124.66;;;27.69;50.19
17362;BME280;8798;51.938;4.348;2023-06-19T13:11:24;102129.25;;;27.75;50.04
17362;BME280;8798;51.938;4.348;2023-06-19T13:13:52;102138.31;;;27.82;49.77
17362;BME280;8798;51.938;4.348;2023-06-19T13:16:20;102130.88;;;27.83;49.47